Lake Tahoe Airport
KTVL : now visible

Airfield :











YOU CAN JOIN US ON...

 
LOGIN :

Register | Disclaimer

   EN    FR    IT 

 









Legend :    VFR   Marginal VFR   IFR   Intensive IFR   Very Intensive IFR
Visi :
Ceiling :
>= 8 km
>= 3000ft
5 to 8 km
1000 to 3000 ft
1500m to 5 km
500 to 1000 ft
800 to 1500m
200 to 500 ft
< 800m
< 200 ft
Symbols :   Thunderstorms  Fog  Heavy snow  Heavy precipitations  Wind > 20 kt







- Airport Elevation : 6264 ft
- IATA code : TVL


KTVL - Lake Tahoe

CURRENT METAR :
  • 202353Z AUTO 19012G18KT 10SM SCT055 21/07 A3000 RMK AO2 SLP109 T02110072 10233 20200 57004

EXPIRED METARs :
  • 202253Z AUTO 10SM BKN060 21/07 A3001 RMK AO2 PK WND 18026/2216 SLP110 T02060067
  • 202153Z AUTO 20010G20KT 10SM SCT065 22/05 A3002 RMK AO2 SLP108 T02170050

TAF KTVL
Valid from the 21 at 00:00 until the 22 at 00:00 UTC


202320Z 2100/2124 20014G26KT P6SM FEW060
FM210300 20006KT P6SM SKC
FM211500 04008KT P6SM SCT050
KZOA FIR / North America



MET'MAP, your aeronautical weather chart ! - Copyright ORBIFLY December 2007 - Disclaimer

ORBIFLY MET'MAP TEAM :

Programming & Development : Alexandra Zaïnal
Concept & Development : Baudouin d'Aumeries
Co-Development & Prog : Marc-Olivier Méhu
Technical & hardware support : Manuel Goepfert

Contact : metmap@orbifly.com




SOURCES & CREDITS :

   NOAA       Earth
Advisory